sensor_id;sensor_type;location;lat;lon;timestamp;pressure;altitude;pressure_sealevel;temperature;humidity
41690;BME280;27372;42.658;23.256;2023-04-08T00:02:05;93849.16;;;4.90;71.40
41690;BME280;27372;42.658;23.256;2023-04-08T00:04:31;93841.72;;;4.87;70.95
41690;BME280;27372;42.658;23.256;2023-04-08T00:06:56;93848.91;;;4.78;71.58
41690;BME280;27372;42.658;23.256;2023-04-08T00:09:21;93839.50;;;4.84;71.21
41690;BME280;27372;42.658;23.256;2023-04-08T00:11:47;93843.94;;;4.84;71.00
41690;BME280;27372;42.658;23.256;2023-04-08T00:14:12;93858.72;;;4.90;71.03
41690;BME280;27372;42.658;23.256;2023-04-08T00:16:38;93840.91;;;4.80;71.15
41690;BME280;27372;42.658;23.256;2023-04-08T00:19:03;93839.94;;;4.88;70.69
41690;BME280;27372;42.658;23.256;2023-04-08T00:21:30;93837.91;;;4.96;70.30
41690;BME280;27372;42.658;23.256;2023-04-08T00:23:56;93833.50;;;4.84;71.41
41690;BME280;27372;42.658;23.256;2023-04-08T00:26:21;93831.72;;;4.77;71.76
41690;BME280;27372;42.658;23.256;2023-04-08T00:28:47;93846.91;;;4.80;72.07
41690;BME280;27372;42.658;23.256;2023-04-08T00:31:15;93834.28;;;4.64;72.92
41690;BME280;27372;42.658;23.256;2023-04-08T00:33:41;93838.84;;;4.48;73.97
41690;BME280;27372;42.658;23.256;2023-04-08T00:36:06;93833.19;;;4.25;74.54
41690;BME280;27372;42.658;23.256;2023-04-08T00:38:32;93827.84;;;4.40;73.92
41690;BME280;27372;42.658;23.256;2023-04-08T00:40:57;93842.22;;;4.35;74.03
41690;BME280;27372;42.658;23.256;2023-04-08T00:43:23;93845.09;;;4.61;73.18
41690;BME280;27372;42.658;23.256;2023-04-08T00:45:48;93842.72;;;4.66;72.74
41690;BME280;27372;42.658;23.256;2023-04-08T00:48:14;93844.66;;;4.50;73.80
41690;BME280;27372;42.658;23.256;2023-04-08T00:50:42;93831.63;;;4.44;73.05
41690;BME280;27372;42.658;23.256;2023-04-08T00:53:07;93831.06;;;4.42;73.18
41690;BME280;27372;42.658;23.256;2023-04-08T00:55:33;93839.88;;;4.61;72.35
41690;BME280;27372;42.658;23.256;2023-04-08T00:57:58;93835.47;;;4.68;72.60
41690;BME280;27372;42.658;23.256;2023-04-08T01:00:24;93841.91;;;4.79;72.72
41690;BME280;27372;42.658;23.256;2023-04-08T01:08:22;93841.72;;;5.14;72.44
41690;BME280;27372;42.658;23.256;2023-04-08T01:10:52;93844.94;;;5.16;72.75
41690;BME280;27372;42.658;23.256;2023-04-08T01:13:20;93855.56;;;5.15;72.86
41690;BME280;27372;42.658;23.256;2023-04-08T01:15:48;93847.94;;;5.06;73.37
41690;BME280;27372;42.658;23.256;2023-04-08T01:18:14;93846.34;;;5.12;73.34
41690;BME280;27372;42.658;23.256;2023-04-08T01:20:42;93864.75;;;5.10;73.14
41690;BME280;27372;42.658;23.256;2023-04-08T01:26:00;93846.50;;;4.77;73.69
41690;BME280;27372;42.658;23.256;2023-04-08T01:28:27;93851.34;;;4.93;72.91
41690;BME280;27372;42.658;23.256;2023-04-08T01:30:56;93853.53;;;4.90;73.20
41690;BME280;27372;42.658;23.256;2023-04-08T01:33:22;93846.16;;;4.93;73.43
41690;BME280;27372;42.658;23.256;2023-04-08T01:35:48;93841.91;;;4.99;72.79
41690;BME280;27372;42.658;23.256;2023-04-08T01:38:18;93850.75;;;5.25;72.31
41690;BME280;27372;42.658;23.256;2023-04-08T01:40:46;93854.75;;;5.27;72.22
41690;BME280;27372;42.658;23.256;2023-04-08T01:43:16;93851.34;;;5.27;72.18
41690;BME280;27372;42.658;23.256;2023-04-08T01:45:43;93857.13;;;5.42;71.95
41690;BME280;27372;42.658;23.256;2023-04-08T01:48:11;93859.13;;;5.54;71.86
41690;BME280;27372;42.658;23.256;2023-04-08T01:50:39;93862.75;;;5.59;71.97
41690;BME280;27372;42.658;23.256;2023-04-08T01:53:08;93855.13;;;5.58;72.06
41690;BME280;27372;42.658;23.256;2023-04-08T01:55:34;93845.09;;;5.62;71.83
41690;BME280;27372;42.658;23.256;2023-04-08T01:58:00;93865.94;;;5.68;71.97
41690;BME280;27372;42.658;23.256;2023-04-08T02:00:29;93861.97;;;5.32;72.12
41690;BME280;27372;42.658;23.256;2023-04-08T02:02:54;93865.13;;;4.74;74.22
41690;BME280;27372;42.658;23.256;2023-04-08T02:05:21;93862.31;;;4.62;75.44
41690;BME280;27372;42.658;23.256;2023-04-08T02:07:47;93874.50;;;4.55;75.84
41690;BME280;27372;42.658;23.256;2023-04-08T02:10:13;93872.06;;;4.53;75.81
41690;BME280;27372;42.658;23.256;2023-04-08T02:12:39;93876.72;;;4.71;75.64
41690;BME280;27372;42.658;23.256;2023-04-08T02:15:05;93868.13;;;4.64;75.01
41690;BME280;27372;42.658;23.256;2023-04-08T02:22:49;93875.59;;;5.01;73.33
41690;BME280;27372;42.658;23.256;2023-04-08T02:25:21;93881.16;;;4.91;73.26
41690;BME280;27372;42.658;23.256;2023-04-08T02:27:48;93885.56;;;5.04;73.28
41690;BME280;27372;42.658;23.256;2023-04-08T02:30:14;93885.19;;;5.13;73.22
41690;BME280;27372;42.658;23.256;2023-04-08T02:32:41;93884.59;;;5.25;72.59
41690;BME280;27372;42.658;23.256;2023-04-08T02:35:08;93884.00;;;5.29;72.99
41690;BME280;27372;42.658;23.256;2023-04-08T02:37:35;93886.41;;;5.44;72.17
41690;BME280;27372;42.658;23.256;2023-04-08T02:40:01;93881.41;;;5.36;71.91
41690;BME280;27372;42.658;23.256;2023-04-08T02:42:26;93884.59;;;5.45;72.67
41690;BME280;27372;42.658;23.256;2023-04-08T02:44:52;93870.56;;;5.53;71.80
41690;BME280;27372;42.658;23.256;2023-04-08T02:47:17;93866.97;;;5.54;71.37
41690;BME280;27372;42.658;23.256;2023-04-08T02:49:43;93886.78;;;5.55;71.48
41690;BME280;27372;42.658;23.256;2023-04-08T02:52:08;93876.16;;;5.56;71.30
41690;BME280;27372;42.658;23.256;2023-04-08T02:54:33;93874.97;;;5.59;70.82
41690;BME280;27372;42.658;23.256;2023-04-08T02:56:59;93873.94;;;5.67;70.94
41690;BME280;27372;42.658;23.256;2023-04-08T02:59:24;93878.16;;;5.61;71.09
41690;BME280;27372;42.658;23.256;2023-04-08T03:01:50;93885.78;;;5.69;70.99
41690;BME280;27372;42.658;23.256;2023-04-08T03:04:15;93873.53;;;5.70;70.69
41690;BME280;27372;42.658;23.256;2023-04-08T03:06:41;93871.78;;;5.57;71.29
41690;BME280;27372;42.658;23.256;2023-04-08T03:09:06;93880.75;;;5.68;71.39
41690;BME280;27372;42.658;23.256;2023-04-08T03:11:32;93870.34;;;5.68;71.32
41690;BME280;27372;42.658;23.256;2023-04-08T03:13:57;93864.34;;;5.60;71.50
41690;BME280;27372;42.658;23.256;2023-04-08T03:16:23;93884.38;;;5.73;71.41
41690;BME280;27372;42.658;23.256;2023-04-08T03:18:49;93875.16;;;5.71;71.51
41690;BME280;27372;42.658;23.256;2023-04-08T03:21:15;93879.75;;;5.69;71.55
41690;BME280;27372;42.658;23.256;2023-04-08T03:23:41;93876.75;;;5.65;71.87
41690;BME280;27372;42.658;23.256;2023-04-08T03:26:06;93870.34;;;5.61;71.72
41690;BME280;27372;42.658;23.256;2023-04-08T03:28:32;93867.78;;;5.48;71.99
41690;BME280;27372;42.658;23.256;2023-04-08T03:30:57;93875.16;;;5.57;71.58
41690;BME280;27372;42.658;23.256;2023-04-08T03:33:22;93876.97;;;5.43;71.85
41690;BME280;27372;42.658;23.256;2023-04-08T03:35:48;93874.97;;;5.25;72.14
41690;BME280;27372;42.658;23.256;2023-04-08T03:38:13;93876.19;;;5.36;72.75
41690;BME280;27372;42.658;23.256;2023-04-08T03:40:39;93875.97;;;5.24;73.01
41690;BME280;27372;42.658;23.256;2023-04-08T03:43:04;93874.97;;;5.32;72.38
41690;BME280;27372;42.658;23.256;2023-04-08T03:45:32;93866.59;;;5.17;72.91
41690;BME280;27372;42.658;23.256;2023-04-08T03:47:58;93874.34;;;4.90;73.49
41690;BME280;27372;42.658;23.256;2023-04-08T03:50:23;93873.16;;;4.99;73.53
41690;BME280;27372;42.658;23.256;2023-04-08T03:52:49;93882.41;;;5.08;73.40
41690;BME280;27372;42.658;23.256;2023-04-08T03:55:14;93876.59;;;5.13;73.11
41690;BME280;27372;42.658;23.256;2023-04-08T03:57:40;93877.59;;;5.19;73.28
41690;BME280;27372;42.658;23.256;2023-04-08T04:00:06;93882.41;;;5.42;72.82
41690;BME280;27372;42.658;23.256;2023-04-08T04:02:32;93883.22;;;5.29;73.06
41690;BME280;27372;42.658;23.256;2023-04-08T04:04:57;93873.78;;;5.15;72.93
41690;BME280;27372;42.658;23.256;2023-04-08T04:07:22;93872.78;;;5.29;73.21
41690;BME280;27372;42.658;23.256;2023-04-08T04:09:48;93867.38;;;5.44;72.88
41690;BME280;27372;42.658;23.256;2023-04-08T04:12:13;93879.19;;;5.26;73.69
41690;BME280;27372;42.658;23.256;2023-04-08T04:14:38;93885.22;;;5.27;74.05
41690;BME280;27372;42.658;23.256;2023-04-08T04:17:04;93875.97;;;5.38;73.12
41690;BME280;27372;42.658;23.256;2023-04-08T04:19:30;93879.97;;;5.47;72.62
41690;BME280;27372;42.658;23.256;2023-04-08T04:21:56;93880.38;;;5.57;72.24
41690;BME280;27372;42.658;23.256;2023-04-08T04:24:21;93878.75;;;5.63;71.94
41690;BME280;27372;42.658;23.256;2023-04-08T04:26:46;93880.75;;;5.68;71.65
41690;BME280;27372;42.658;23.256;2023-04-08T04:29:12;93894.56;;;5.75;71.95
41690;BME280;27372;42.658;23.256;2023-04-08T04:31:37;93889.19;;;5.77;71.85
41690;BME280;27372;42.658;23.256;2023-04-08T04:34:03;93887.78;;;5.54;72.71
41690;BME280;27372;42.658;23.256;2023-04-08T04:36:28;93898.03;;;5.42;73.07
41690;BME280;27372;42.658;23.256;2023-04-08T04:38:53;93887.81;;;5.13;74.47
41690;BME280;27372;42.658;23.256;2023-04-08T04:41:20;93890.81;;;5.24;74.36
41690;BME280;27372;42.658;23.256;2023-04-08T04:43:46;93895.00;;;5.52;73.15
41690;BME280;27372;42.658;23.256;2023-04-08T04:46:11;93891.22;;;5.54;72.77
41690;BME280;27372;42.658;23.256;2023-04-08T04:48:36;93895.63;;;5.54;72.18
41690;BME280;27372;42.658;23.256;2023-04-08T04:51:02;93894.41;;;5.29;73.19
41690;BME280;27372;42.658;23.256;2023-04-08T04:53:28;93895.22;;;5.30;72.88
41690;BME280;27372;42.658;23.256;2023-04-08T04:55:54;93902.63;;;5.20;72.38
41690;BME280;27372;42.658;23.256;2023-04-08T04:58:20;93905.03;;;5.15;73.52
41690;BME280;27372;42.658;23.256;2023-04-08T05:00:45;93902.22;;;5.29;72.54
41690;BME280;27372;42.658;23.256;2023-04-08T05:03:11;93900.00;;;5.20;74.40
41690;BME280;27372;42.658;23.256;2023-04-08T05:05:37;93904.25;;;5.34;74.83
41690;BME280;27372;42.658;23.256;2023-04-08T05:08:02;93897.81;;;5.30;74.16
41690;BME280;27372;42.658;23.256;2023-04-08T05:10:28;93904.44;;;5.66;72.94
41690;BME280;27372;42.658;23.256;2023-04-08T05:12:53;93910.44;;;5.73;74.07
41690;BME280;27372;42.658;23.256;2023-04-08T05:15:19;93907.38;;;5.97;73.39
41690;BME280;27372;42.658;23.256;2023-04-08T05:17:45;93906.00;;;5.87;71.85
41690;BME280;27372;42.658;23.256;2023-04-08T05:20:11;93899.00;;;5.81;70.93
41690;BME280;27372;42.658;23.256;2023-04-08T05:22:36;93900.63;;;5.49;70.67
41690;BME280;27372;42.658;23.256;2023-04-08T05:25:02;93892.34;;;5.99;70.74
41690;BME280;27372;42.658;23.256;2023-04-08T05:27:27;93888.38;;;6.87;91.45
41690;BME280;27372;42.658;23.256;2023-04-08T05:29:52;93901.78;;;8.17;100.00
41690;BME280;27372;42.658;23.256;2023-04-08T05:32:18;93907.34;;;9.38;100.00
41690;BME280;27372;42.658;23.256;2023-04-08T05:34:43;93895.16;;;10.79;92.23
41690;BME280;27372;42.658;23.256;2023-04-08T05:37:09;93894.34;;;10.79;75.57
41690;BME280;27372;42.658;23.256;2023-04-08T05:39:35;93902.03;;;11.60;75.21
41690;BME280;27372;42.658;23.256;2023-04-08T05:42:00;93906.66;;;11.53;67.56
41690;BME280;27372;42.658;23.256;2023-04-08T05:44:26;93912.81;;;11.93;64.47
41690;BME280;27372;42.658;23.256;2023-04-08T05:46:51;93897.41;;;12.19;64.66
41690;BME280;27372;42.658;23.256;2023-04-08T05:49:17;93908.66;;;12.36;61.67
41690;BME280;27372;42.658;23.256;2023-04-08T05:51:42;93901.72;;;12.47;59.40
41690;BME280;27372;42.658;23.256;2023-04-08T05:54:08;93912.25;;;12.25;52.07
41690;BME280;27372;42.658;23.256;2023-04-08T05:56:33;93906.16;;;11.22;50.65
41690;BME280;27372;42.658;23.256;2023-04-08T05:58:59;93907.81;;;10.41;52.59
41690;BME280;27372;42.658;23.256;2023-04-08T06:01:25;93896.06;;;10.08;53.62
41690;BME280;27372;42.658;23.256;2023-04-08T06:03:50;93896.78;;;9.92;54.41
41690;BME280;27372;42.658;23.256;2023-04-08T06:06:17;93891.53;;;9.92;54.27
41690;BME280;27372;42.658;23.256;2023-04-08T06:08:42;93901.75;;;9.58;55.18
41690;BME280;27372;42.658;23.256;2023-04-08T06:11:08;93896.63;;;9.39;55.61
41690;BME280;27372;42.658;23.256;2023-04-08T06:13:33;93899.13;;;9.34;56.10
41690;BME280;27372;42.658;23.256;2023-04-08T06:16:12;93900.53;;;9.06;57.39
41690;BME280;27372;42.658;23.256;2023-04-08T06:18:38;93896.00;;;8.83;57.82
41690;BME280;27372;42.658;23.256;2023-04-08T06:21:03;93896.06;;;8.95;57.80
41690;BME280;27372;42.658;23.256;2023-04-08T06:23:29;93899.72;;;8.94;57.53
41690;BME280;27372;42.658;23.256;2023-04-08T06:25:54;93905.56;;;8.40;59.48
41690;BME280;27372;42.658;23.256;2023-04-08T06:28:20;93901.94;;;8.41;59.56
41690;BME280;27372;42.658;23.256;2023-04-08T06:30:45;93902.97;;;8.59;59.46
41690;BME280;27372;42.658;23.256;2023-04-08T06:33:10;93904.13;;;8.63;59.07
41690;BME280;27372;42.658;23.256;2023-04-08T06:35:36;93902.72;;;8.60;60.15
41690;BME280;27372;42.658;23.256;2023-04-08T06:38:04;93909.34;;;8.44;60.91
41690;BME280;27372;42.658;23.256;2023-04-08T06:40:30;93899.91;;;8.43;60.52
41690;BME280;27372;42.658;23.256;2023-04-08T06:42:55;93906.16;;;8.61;59.54
41690;BME280;27372;42.658;23.256;2023-04-08T06:45:21;93904.63;;;8.53;59.93
41690;BME280;27372;42.658;23.256;2023-04-08T06:47:47;93919.84;;;7.82;62.96
41690;BME280;27372;42.658;23.256;2023-04-08T06:50:12;93908.00;;;7.79;63.09
41690;BME280;27372;42.658;23.256;2023-04-08T06:52:37;93913.03;;;7.55;63.98
41690;BME280;27372;42.658;23.256;2023-04-08T06:55:03;93905.81;;;7.76;63.39
41690;BME280;27372;42.658;23.256;2023-04-08T06:57:29;93913.59;;;7.83;63.42
41690;BME280;27372;42.658;23.256;2023-04-08T06:59:54;93910.56;;;7.86;63.00
41690;BME280;27372;42.658;23.256;2023-04-08T07:02:20;93911.00;;;7.57;64.25
41690;BME280;27372;42.658;23.256;2023-04-08T07:04:47;93905.69;;;7.89;63.70
41690;BME280;27372;42.658;23.256;2023-04-08T07:07:12;93918.28;;;7.74;64.11
41690;BME280;27372;42.658;23.256;2023-04-08T07:09:38;93911.88;;;7.95;62.74
41690;BME280;27372;42.658;23.256;2023-04-08T07:12:04;93918.59;;;7.84;64.04
41690;BME280;27372;42.658;23.256;2023-04-08T07:14:29;93914.56;;;8.07;62.25
41690;BME280;27372;42.658;23.256;2023-04-08T07:16:55;93913.50;;;8.15;62.41
41690;BME280;27372;42.658;23.256;2023-04-08T07:19:21;93915.53;;;8.50;61.62
41690;BME280;27372;42.658;23.256;2023-04-08T07:21:48;93923.16;;;8.70;60.86
41690;BME280;27372;42.658;23.256;2023-04-08T07:24:13;93916.63;;;8.61;60.27
41690;BME280;27372;42.658;23.256;2023-04-08T07:26:40;93910.53;;;8.48;61.05
41690;BME280;27372;42.658;23.256;2023-04-08T07:29:05;93929.06;;;8.47;61.07
41690;BME280;27372;42.658;23.256;2023-04-08T07:31:31;93924.28;;;8.93;60.08
41690;BME280;27372;42.658;23.256;2023-04-08T07:33:57;93929.34;;;9.06;58.39
41690;BME280;27372;42.658;23.256;2023-04-08T07:36:22;93936.59;;;9.23;58.41
41690;BME280;27372;42.658;23.256;2023-04-08T07:38:49;93929.97;;;9.20;57.93
41690;BME280;27372;42.658;23.256;2023-04-08T07:41:15;93931.13;;;9.24;57.68
41690;BME280;27372;42.658;23.256;2023-04-08T07:43:41;93936.66;;;8.85;60.15
41690;BME280;27372;42.658;23.256;2023-04-08T07:46:06;93948.47;;;8.95;58.17
41690;BME280;27372;42.658;23.256;2023-04-08T07:48:32;93943.91;;;8.53;60.16
41690;BME280;27372;42.658;23.256;2023-04-08T07:51:05;93945.50;;;8.54;59.75
41690;BME280;27372;42.658;23.256;2023-04-08T07:53:31;93945.44;;;9.10;58.53
41690;BME280;27372;42.658;23.256;2023-04-08T07:55:57;93955.72;;;9.23;57.86
41690;BME280;27372;42.658;23.256;2023-04-08T07:58:23;93950.28;;;9.25;57.21
41690;BME280;27372;42.658;23.256;2023-04-08T08:00:49;93948.84;;;9.53;57.41
41690;BME280;27372;42.658;23.256;2023-04-08T08:03:14;93962.88;;;9.58;57.04
41690;BME280;27372;42.658;23.256;2023-04-08T08:05:40;93952.84;;;9.55;57.12
41690;BME280;27372;42.658;23.256;2023-04-08T08:08:05;93961.78;;;9.90;56.97
41690;BME280;27372;42.658;23.256;2023-04-08T08:10:32;93957.00;;;10.22;55.52
41690;BME280;27372;42.658;23.256;2023-04-08T08:12:57;93959.41;;;10.24;55.50
41690;BME280;27372;42.658;23.256;2023-04-08T08:15:23;93965.44;;;10.13;56.72
41690;BME280;27372;42.658;23.256;2023-04-08T08:17:48;93964.63;;;10.00;56.35
41690;BME280;27372;42.658;23.256;2023-04-08T08:20:14;93963.06;;;10.11;55.99
41690;BME280;27372;42.658;23.256;2023-04-08T08:22:39;93968.16;;;10.18;55.75
41690;BME280;27372;42.658;23.256;2023-04-08T08:25:05;93967.84;;;10.26;55.01
41690;BME280;27372;42.658;23.256;2023-04-08T08:27:31;93963.75;;;10.42;55.21
41690;BME280;27372;42.658;23.256;2023-04-08T08:29:58;93965.00;;;10.39;55.20
41690;BME280;27372;42.658;23.256;2023-04-08T08:32:24;93965.91;;;10.33;55.78
41690;BME280;27372;42.658;23.256;2023-04-08T08:34:49;93967.59;;;10.63;54.92
41690;BME280;27372;42.658;23.256;2023-04-08T08:37:14;93957.97;;;10.81;53.93
41690;BME280;27372;42.658;23.256;2023-04-08T08:39:40;93958.78;;;10.69;53.38
41690;BME280;27372;42.658;23.256;2023-04-08T08:42:06;93958.91;;;11.03;53.65
41690;BME280;27372;42.658;23.256;2023-04-08T08:44:31;93957.69;;;11.23;52.71
41690;BME280;27372;42.658;23.256;2023-04-08T08:46:57;93950.44;;;11.13;53.06
41690;BME280;27372;42.658;23.256;2023-04-08T08:49:22;93954.50;;;10.92;54.55
41690;BME280;27372;42.658;23.256;2023-04-08T08:51:49;93948.69;;;10.90;54.52
41690;BME280;27372;42.658;23.256;2023-04-08T08:54:15;93958.53;;;11.12;53.52
41690;BME280;27372;42.658;23.256;2023-04-08T08:56:41;93958.63;;;11.46;53.17
41690;BME280;27372;42.658;23.256;2023-04-08T08:59:08;93957.56;;;11.30;53.70
41690;BME280;27372;42.658;23.256;2023-04-08T09:01:37;93969.19;;;11.80;52.99
41690;BME280;27372;42.658;23.256;2023-04-08T09:04:19;93966.34;;;11.99;52.37
41690;BME280;27372;42.658;23.256;2023-04-08T09:06:46;93965.13;;;12.06;51.81
41690;BME280;27372;42.658;23.256;2023-04-08T09:09:13;93969.44;;;12.30;50.52
41690;BME280;27372;42.658;23.256;2023-04-08T09:11:40;93956.84;;;12.54;49.85
41690;BME280;27372;42.658;23.256;2023-04-08T09:14:24;93961.63;;;12.57;48.41
41690;BME280;27372;42.658;23.256;2023-04-08T09:16:51;93962.13;;;12.76;48.41
41690;BME280;27372;42.658;23.256;2023-04-08T09:19:16;93964.81;;;13.03;48.09
41690;BME280;27372;42.658;23.256;2023-04-08T09:21:42;93948.81;;;13.10;47.65
41690;BME280;27372;42.658;23.256;2023-04-08T09:24:08;93949.38;;;13.12;46.73
41690;BME280;27372;42.658;23.256;2023-04-08T09:26:35;93951.59;;;13.26;48.58
41690;BME280;27372;42.658;23.256;2023-04-08T09:29:07;93956.84;;;13.75;47.66
41690;BME280;27372;42.658;23.256;2023-04-08T09:31:35;93953.91;;;13.17;46.63
41690;BME280;27372;42.658;23.256;2023-04-08T09:36:34;93942.34;;;13.23;46.99
41690;BME280;27372;42.658;23.256;2023-04-08T09:38:59;93949.22;;;12.74;47.85
41690;BME280;27372;42.658;23.256;2023-04-08T09:41:27;93942.16;;;13.02;48.67
41690;BME280;27372;42.658;23.256;2023-04-08T09:43:54;93940.41;;;13.13;47.54
41690;BME280;27372;42.658;23.256;2023-04-08T09:46:26;93935.09;;;13.08;47.54
41690;BME280;27372;42.658;23.256;2023-04-08T09:51:39;93937.53;;;12.93;47.48
41690;BME280;27372;42.658;23.256;2023-04-08T09:54:12;93941.22;;;13.14;47.13
41690;BME280;27372;42.658;23.256;2023-04-08T09:56:43;93937.88;;;13.24;47.02
41690;BME280;27372;42.658;23.256;2023-04-08T09:59:13;93933.28;;;12.64;48.04
41690;BME280;27372;42.658;23.256;2023-04-08T10:01:45;93938.19;;;13.27;48.15
41690;BME280;27372;42.658;23.256;2023-04-08T10:04:15;93937.81;;;13.41;46.19
41690;BME280;27372;42.658;23.256;2023-04-08T10:06:43;93931.91;;;13.06;46.27
41690;BME280;27372;42.658;23.256;2023-04-08T10:09:10;93929.19;;;13.83;44.56
41690;BME280;27372;42.658;23.256;2023-04-08T10:11:36;93919.19;;;14.28;44.17
41690;BME280;27372;42.658;23.256;2023-04-08T10:14:02;93927.50;;;15.05;43.31
41690;BME280;27372;42.658;23.256;2023-04-08T10:16:27;93915.66;;;14.60;43.36
41690;BME280;27372;42.658;23.256;2023-04-08T10:18:54;93922.69;;;13.96;44.30
41690;BME280;27372;42.658;23.256;2023-04-08T10:24:02;93906.22;;;13.24;45.53
41690;BME280;27372;42.658;23.256;2023-04-08T10:26:32;93912.31;;;12.52;48.38
41690;BME280;27372;42.658;23.256;2023-04-08T10:31:42;93921.00;;;11.62;51.05
41690;BME280;27372;42.658;23.256;2023-04-08T10:34:23;93918.47;;;11.68;52.01
41690;BME280;27372;42.658;23.256;2023-04-08T10:36:51;93913.22;;;12.02;51.00
41690;BME280;27372;42.658;23.256;2023-04-08T10:39:17;93911.69;;;12.06;51.31
41690;BME280;27372;42.658;23.256;2023-04-08T10:41:47;93905.25;;;12.14;51.38
41690;BME280;27372;42.658;23.256;2023-04-08T10:44:23;93896.47;;;12.08;50.78
41690;BME280;27372;42.658;23.256;2023-04-08T10:46:50;93897.34;;;11.96;52.51
41690;BME280;27372;42.658;23.256;2023-04-08T10:49:16;93886.50;;;12.10;51.89
41690;BME280;27372;42.658;23.256;2023-04-08T10:51:43;93883.31;;;12.08;51.86
41690;BME280;27372;42.658;23.256;2023-04-08T10:54:11;93880.88;;;13.45;49.21
41690;BME280;27372;42.658;23.256;2023-04-08T10:59:20;93894.72;;;12.36;50.51
41690;BME280;27372;42.658;23.256;2023-04-08T11:01:51;93883.47;;;12.40;50.94
41690;BME280;27372;42.658;23.256;2023-04-08T11:04:17;93884.63;;;12.27;51.18
41690;BME280;27372;42.658;23.256;2023-04-08T11:06:44;93883.31;;;12.52;50.50
41690;BME280;27372;42.658;23.256;2023-04-08T11:09:12;93869.28;;;12.02;51.61
41690;BME280;27372;42.658;23.256;2023-04-08T11:11:40;93870.31;;;12.01;51.12
41690;BME280;27372;42.658;23.256;2023-04-08T11:14:05;93868.72;;;12.00;52.57
41690;BME280;27372;42.658;23.256;2023-04-08T11:16:31;93865.84;;;12.02;51.91
41690;BME280;27372;42.658;23.256;2023-04-08T11:18:57;93866.00;;;11.95;51.58
41690;BME280;27372;42.658;23.256;2023-04-08T11:21:23;93854.63;;;11.72;52.39
41690;BME280;27372;42.658;23.256;2023-04-08T11:23:50;93850.47;;;11.76;52.62
41690;BME280;27372;42.658;23.256;2023-04-08T11:26:18;93850.56;;;12.43;51.28
41690;BME280;27372;42.658;23.256;2023-04-08T11:28:44;93846.88;;;12.44;49.54
41690;BME280;27372;42.658;23.256;2023-04-08T11:31:11;93847.75;;;12.27;50.18
41690;BME280;27372;42.658;23.256;2023-04-08T11:33:37;93844.31;;;12.27;49.57
41690;BME280;27372;42.658;23.256;2023-04-08T11:36:11;93836.31;;;12.88;48.49
41690;BME280;27372;42.658;23.256;2023-04-08T11:38:38;93840.47;;;13.39;47.28
41690;BME280;27372;42.658;23.256;2023-04-08T11:41:04;93839.28;;;13.57;46.71
41690;BME280;27372;42.658;23.256;2023-04-08T11:43:30;93825.47;;;13.82;45.74
41690;BME280;27372;42.658;23.256;2023-04-08T11:45:55;93818.63;;;12.89;47.30
41690;BME280;27372;42.658;23.256;2023-04-08T11:48:21;93820.81;;;12.97;47.36
41690;BME280;27372;42.658;23.256;2023-04-08T11:51:07;93817.34;;;12.64;47.01
41690;BME280;27372;42.658;23.256;2023-04-08T11:53:36;93814.56;;;12.26;47.09
41690;BME280;27372;42.658;23.256;2023-04-08T11:56:20;93808.31;;;11.54;48.65
41690;BME280;27372;42.658;23.256;2023-04-08T11:58:47;93814.94;;;11.40;49.81
41690;BME280;27372;42.658;23.256;2023-04-08T12:01:13;93791.22;;;11.17;51.00
41690;BME280;27372;42.658;23.256;2023-04-08T12:03:52;93797.50;;;10.99;51.42
41690;BME280;27372;42.658;23.256;2023-04-08T12:06:18;93798.25;;;10.66;52.02
41690;BME280;27372;42.658;23.256;2023-04-08T12:08:43;93787.59;;;10.72;52.58
41690;BME280;27372;42.658;23.256;2023-04-08T12:11:09;93803.88;;;11.03;52.65
41690;BME280;27372;42.658;23.256;2023-04-08T12:13:35;93798.56;;;10.69;52.89
41690;BME280;27372;42.658;23.256;2023-04-08T12:16:00;93802.13;;;10.63;53.32
41690;BME280;27372;42.658;23.256;2023-04-08T12:18:26;93802.19;;;11.31;52.75
41690;BME280;27372;42.658;23.256;2023-04-08T12:20:51;93785.63;;;12.04;49.77
41690;BME280;27372;42.658;23.256;2023-04-08T12:23:17;93788.19;;;11.82;51.01
41690;BME280;27372;42.658;23.256;2023-04-08T12:25:42;93786.34;;;11.43;51.77
41690;BME280;27372;42.658;23.256;2023-04-08T12:28:08;93783.63;;;11.04;52.41
41690;BME280;27372;42.658;23.256;2023-04-08T12:30:35;93787.47;;;10.96;51.99
41690;BME280;27372;42.658;23.256;2023-04-08T12:33:01;93776.78;;;10.86;52.02
41690;BME280;27372;42.658;23.256;2023-04-08T12:35:27;93785.03;;;10.61;52.61
41690;BME280;27372;42.658;23.256;2023-04-08T12:37:52;93777.34;;;10.71;53.05
41690;BME280;27372;42.658;23.256;2023-04-08T12:40:18;93784.22;;;10.60;52.30
41690;BME280;27372;42.658;23.256;2023-04-08T12:42:43;93782.25;;;10.38;52.96
41690;BME280;27372;42.658;23.256;2023-04-08T12:45:09;93784.44;;;10.30;53.69
41690;BME280;27372;42.658;23.256;2023-04-08T12:47:34;93795.84;;;10.23;54.52
41690;BME280;27372;42.658;23.256;2023-04-08T12:50:00;93807.38;;;10.34;55.53
41690;BME280;27372;42.658;23.256;2023-04-08T12:52:26;93812.19;;;10.25;56.56
41690;BME280;27372;42.658;23.256;2023-04-08T12:54:51;93800.00;;;10.19;57.38
41690;BME280;27372;42.658;23.256;2023-04-08T12:57:16;93798.00;;;9.98;61.66
41690;BME280;27372;42.658;23.256;2023-04-08T12:59:42;93795.00;;;10.06;61.47
41690;BME280;27372;42.658;23.256;2023-04-08T13:02:07;93804.75;;;9.82;63.57
41690;BME280;27372;42.658;23.256;2023-04-08T13:04:33;93814.53;;;10.51;63.58
41690;BME280;27372;42.658;23.256;2023-04-08T13:06:58;93802.66;;;11.45;59.40
41690;BME280;27372;42.658;23.256;2023-04-08T13:09:25;93808.91;;;11.78;59.35
41690;BME280;27372;42.658;23.256;2023-04-08T13:11:50;93800.72;;;11.75;61.37
41690;BME280;27372;42.658;23.256;2023-04-08T13:14:16;93803.38;;;11.41;58.81
41690;BME280;27372;42.658;23.256;2023-04-08T13:16:41;93798.41;;;11.61;58.00
41690;BME280;27372;42.658;23.256;2023-04-08T13:19:06;93793.56;;;11.92;58.51